createdAt,value
2019-05-06T00:02:24.543Z,4.15
2019-05-06T00:08:27.017Z,4.55
2019-05-06T00:14:29.310Z,4.58
2019-05-06T00:20:31.706Z,5.10
2019-05-06T00:26:56.926Z,4.97
2019-05-06T00:32:57.440Z,5.92
2019-05-06T00:39:01.667Z,5.17
2019-05-06T00:45:05.577Z,6.42
2019-05-06T00:51:07.910Z,6.78
2019-05-06T00:57:10.103Z,6.10
2019-05-06T01:03:14.090Z,6.65
2019-05-06T01:09:20.975Z,6.45
2019-05-06T01:15:25.173Z,5.80
2019-05-06T01:21:28.233Z,5.87
2019-05-06T01:27:30.459Z,6.83
2019-05-06T01:33:34.964Z,7.35
2019-05-06T01:39:58.501Z,7.58
2019-05-06T01:46:00.829Z,6.60
2019-05-06T01:52:04.075Z,6.80
2019-05-06T01:58:06.518Z,6.60
2019-05-06T02:04:08.840Z,9.30
2019-05-06T02:10:11.591Z,8.78
2019-05-06T02:16:14.641Z,7.50
2019-05-06T02:22:21.615Z,8.33
2019-05-06T02:28:24.151Z,7.95
2019-05-06T02:34:36.393Z,9.55
2019-05-06T02:40:42.634Z,10.43
2019-05-06T02:46:45.822Z,9.13
2019-05-06T02:52:48.450Z,10.40
2019-05-06T02:58:53.457Z,10.13
2019-05-06T03:04:54.836Z,10.45
2019-05-06T03:10:57.025Z,10.43
2019-05-06T03:16:59.522Z,10.70
2019-05-06T03:23:06.416Z,11.85
2019-05-06T03:29:08.597Z,10.93
2019-05-06T03:35:31.530Z,13.20
2019-05-06T03:41:16.073Z,14.05
2019-05-06T03:47:35.480Z,13.18
2019-05-06T03:53:37.687Z,12.07
2019-05-06T03:59:43.423Z,12.63
2019-05-06T04:05:45.069Z,14.05
2019-05-06T04:11:48.068Z,17.50
2019-05-06T04:17:53.844Z,14.30
2019-05-06T04:23:58.875Z,16.17
2019-05-06T04:30:04.324Z,13.53
2019-05-06T04:36:09.006Z,11.95
2019-05-06T04:42:13.749Z,11.35
2019-05-06T04:48:15.753Z,12.45
2019-05-06T04:54:26.208Z,11.97
2019-05-06T05:00:24.214Z,12.23
2019-05-06T05:06:27.807Z,13.25
2019-05-06T05:12:38.379Z,13.18
2019-05-06T05:18:45.590Z,12.13
2019-05-06T05:24:52.112Z,11.53
2019-05-06T05:30:55.571Z,11.83
2019-05-06T05:36:59.302Z,15.23
2019-05-06T05:43:23.639Z,11.30
2019-05-06T05:49:32.488Z,15.23
2019-05-06T05:55:34.943Z,13.43
2019-05-06T06:01:37.350Z,14.90
2019-05-06T06:07:39.641Z,14.10
2019-05-06T06:13:43.789Z,11.30
2019-05-06T06:20:02.618Z,11.10
2019-05-06T06:26:05.472Z,9.98
2019-05-06T06:32:13.797Z,9.98
2019-05-06T06:38:35.000Z,9.53
2019-05-06T06:44:57.793Z,9.48
2019-05-06T06:51:03.319Z,9.80
2019-05-06T06:57:09.905Z,9.40
2019-05-06T07:03:29.454Z,9.23
2019-05-06T07:09:41.942Z,8.93
2019-05-06T07:15:45.375Z,8.98
2019-05-06T07:21:53.525Z,7.35
2019-05-06T07:27:56.364Z,7.42
2019-05-06T07:33:59.005Z,6.95
2019-05-06T07:40:03.022Z,7.67
2019-05-06T07:46:16.720Z,7.00
2019-05-06T07:52:20.028Z,6.90
2019-05-06T07:58:25.773Z,7.65
2019-05-06T08:04:28.136Z,8.20
2019-05-06T08:10:32.917Z,7.87
2019-05-06T08:16:38.462Z,7.05
2019-05-06T08:22:48.243Z,7.58
2019-05-06T08:28:52.712Z,7.47
2019-05-06T08:34:54.930Z,7.10
2019-05-06T08:40:57.220Z,8.28
2019-05-06T08:47:02.641Z,8.48
2019-05-06T08:53:18.622Z,7.60
2019-05-06T08:59:20.838Z,6.87
2019-05-06T09:05:26.308Z,6.92
2019-05-06T09:11:29.327Z,6.40
2019-05-06T09:17:33.037Z,6.62
2019-05-06T09:23:35.531Z,6.00
2019-05-06T09:29:43.029Z,5.53
2019-05-06T09:35:46.033Z,5.25
2019-05-06T09:41:49.496Z,5.08
2019-05-06T09:47:54.349Z,4.70
2019-05-06T09:54:05.370Z,4.42
2019-05-06T10:00:08.017Z,4.17
2019-05-06T10:06:10.326Z,5.42
2019-05-06T10:12:12.858Z,4.83
2019-05-06T10:18:15.817Z,4.10
2019-05-06T10:24:18.210Z,4.17
2019-05-06T10:30:22.535Z,3.42
2019-05-06T10:36:32.445Z,3.87
2019-05-06T10:42:39.874Z,4.55
2019-05-06T10:48:43.743Z,4.03
2019-05-06T10:54:46.457Z,4.55
2019-05-06T11:00:52.875Z,3.67
2019-05-06T11:06:55.669Z,4.37
2019-05-06T11:12:58.005Z,4.45
2019-05-06T11:19:02.095Z,4.80
2019-05-06T11:25:04.873Z,4.45
2019-05-06T11:31:09.397Z,3.10
2019-05-06T11:37:18.981Z,5.05
2019-05-06T11:43:22.730Z,4.90
2019-05-06T11:49:28.695Z,4.00
2019-05-06T11:55:38.562Z,4.90
2019-05-06T12:01:39.184Z,3.98
2019-05-06T12:07:44.888Z,4.15
2019-05-06T12:13:45.796Z,3.52
2019-05-06T12:19:48.271Z,3.30
2019-05-06T12:25:52.786Z,3.72
2019-05-06T12:31:59.812Z,3.35
2019-05-06T12:38:11.370Z,3.12
2019-05-06T12:44:09.533Z,2.92
2019-05-06T12:50:16.936Z,2.90
2019-05-06T12:56:20.723Z,2.80
2019-05-06T13:02:23.765Z,3.17
2019-05-06T13:08:32.685Z,2.75
2019-05-06T13:14:32.939Z,3.52
2019-05-06T13:20:36.339Z,2.65
2019-05-06T13:26:38.629Z,3.00
2019-05-06T13:32:45.883Z,2.80
2019-05-06T13:38:48.197Z,2.52
2019-05-06T13:44:50.715Z,4.30
2019-05-06T13:50:56.710Z,4.70
2019-05-06T13:56:58.996Z,2.83
2019-05-06T14:03:02.577Z,2.50
2019-05-06T14:09:06.379Z,2.70
2019-05-06T14:15:12.443Z,2.17
2019-05-06T14:21:15.197Z,2.02
2019-05-06T14:27:22.101Z,2.20
2019-05-06T14:33:27.471Z,1.90
2019-05-06T14:39:49.026Z,2.27
2019-05-06T14:45:37.791Z,2.27
2019-05-06T14:51:42.608Z,2.10
2019-05-06T14:57:46.428Z,2.60
2019-05-06T15:03:48.985Z,2.60
2019-05-06T15:10:02.470Z,2.70
2019-05-06T15:15:58.528Z,2.60
2019-05-06T15:22:02.229Z,2.55
2019-05-06T15:28:07.529Z,2.60
2019-05-06T15:34:14.593Z,2.37
2019-05-06T15:40:31.017Z,2.10
2019-05-06T15:46:22.859Z,2.22
2019-05-06T15:52:26.207Z,2.30
2019-05-06T15:58:29.380Z,2.30
2019-05-06T16:04:32.827Z,2.17
2019-05-06T16:10:51.206Z,2.55
2019-05-06T16:16:42.989Z,2.60
2019-05-06T16:22:47.345Z,1.80
2019-05-06T16:28:49.785Z,1.85
2019-05-06T16:34:53.113Z,1.90
2019-05-06T16:41:09.454Z,1.87
2019-05-06T16:47:02.705Z,2.60
2019-05-06T16:53:05.383Z,2.35
2019-05-06T16:59:27.370Z,1.70
2019-05-06T17:05:33.648Z,1.87
2019-05-06T17:11:35.717Z,1.85
2019-05-06T17:17:43.198Z,2.33
2019-05-06T17:23:42.420Z,2.92
2019-05-06T17:29:47.850Z,3.30
2019-05-06T17:35:52.038Z,3.22
2019-05-06T17:41:55.152Z,5.72
2019-05-06T17:48:07.360Z,3.40
2019-05-06T17:54:12.356Z,3.65
2019-05-06T18:00:15.885Z,3.35
2019-05-06T18:06:19.557Z,3.62
2019-05-06T18:12:23.385Z,3.40
2019-05-06T18:18:28.968Z,3.20
2019-05-06T18:24:33.072Z,3.27
2019-05-06T18:30:39.107Z,3.80
2019-05-06T18:36:43.171Z,3.15
2019-05-06T18:42:47.246Z,2.90
2019-05-06T18:48:54.144Z,2.62
2019-05-06T18:55:00.799Z,2.25
2019-05-06T19:01:06.790Z,2.35
2019-05-06T19:07:14.497Z,2.33
2019-05-06T19:13:14.333Z,2.58
2019-05-06T19:19:16.861Z,2.12
2019-05-06T19:25:22.676Z,2.22
2019-05-06T19:31:25.625Z,3.08
2019-05-06T19:37:29.270Z,4.30
2019-05-06T19:43:35.127Z,2.98
2019-05-06T19:49:38.294Z,3.10
2019-05-06T19:55:46.648Z,3.55
2019-05-06T20:01:47.442Z,3.05
2019-05-06T20:07:55.427Z,3.80
2019-05-06T20:13:59.294Z,3.90
2019-05-06T20:20:02.888Z,4.45
2019-05-06T20:26:08.242Z,4.30
2019-05-06T20:32:12.222Z,5.53
2019-05-06T20:38:16.129Z,3.98
2019-05-06T20:44:18.768Z,4.42
2019-05-06T20:50:22.528Z,3.85
2019-05-06T20:56:35.407Z,3.92
2019-05-06T21:02:39.517Z,4.28
2019-05-06T21:08:42.224Z,4.62
2019-05-06T21:14:46.129Z,5.25
2019-05-06T21:20:48.632Z,4.80
2019-05-06T21:26:53.306Z,4.58
2019-05-06T21:32:55.804Z,4.35
2019-05-06T21:38:58.971Z,4.78
2019-05-06T21:45:03.225Z,5.20
2019-05-06T21:51:05.772Z,5.42
2019-05-06T21:57:12.125Z,5.20
2019-05-06T22:03:13.462Z,5.37
2019-05-06T22:09:18.748Z,5.17
2019-05-06T22:57:52.917Z,5.87
2019-05-06T23:03:55.289Z,6.17
2019-05-06T23:09:59.106Z,5.58
2019-05-06T23:16:02.090Z,5.42
2019-05-06T23:22:06.453Z,5.85
2019-05-06T23:28:16.163Z,7.35
2019-05-06T23:34:18.515Z,6.17
2019-05-06T23:40:57.592Z,8.30
2019-05-06T23:47:36.546Z,7.40
2019-05-06T23:54:15.017Z,5.85
